sensor_id;sensor_type;location;lat;lon;timestamp;P1;durP1;ratioP1;P2;durP2;ratioP2
51780;SDS011;37844;57.126;24.288;2023-07-31T00:02:42;9.43;;;6.00;;
51780;SDS011;37844;57.126;24.288;2023-07-31T00:05:26;7.30;;;5.15;;
51780;SDS011;37844;57.126;24.288;2023-07-31T00:08:10;8.70;;;5.85;;
51780;SDS011;37844;57.126;24.288;2023-07-31T00:10:54;9.93;;;5.13;;
51780;SDS011;37844;57.126;24.288;2023-07-31T00:13:38;9.27;;;6.63;;
51780;SDS011;37844;57.126;24.288;2023-07-31T00:16:22;8.60;;;5.93;;
51780;SDS011;37844;57.126;24.288;2023-07-31T00:19:06;9.30;;;6.88;;
51780;SDS011;37844;57.126;24.288;2023-07-31T00:21:50;9.32;;;6.20;;
51780;SDS011;37844;57.126;24.288;2023-07-31T00:24:34;10.50;;;7.35;;
51780;SDS011;37844;57.126;24.288;2023-07-31T00:27:18;13.50;;;7.65;;
51780;SDS011;37844;57.126;24.288;2023-07-31T00:30:02;17.27;;;8.02;;
51780;SDS011;37844;57.126;24.288;2023-07-31T00:32:47;11.20;;;8.00;;
51780;SDS011;37844;57.126;24.288;2023-07-31T00:35:31;9.63;;;7.47;;
51780;SDS011;37844;57.126;24.288;2023-07-31T00:38:15;10.77;;;7.78;;
51780;SDS011;37844;57.126;24.288;2023-07-31T00:40:59;12.18;;;7.35;;
51780;SDS011;37844;57.126;24.288;2023-07-31T00:43:43;11.70;;;8.27;;
51780;SDS011;37844;57.126;24.288;2023-07-31T00:46:27;12.38;;;7.60;;
51780;SDS011;37844;57.126;24.288;2023-07-31T00:49:10;11.77;;;7.40;;
51780;SDS011;37844;57.126;24.288;2023-07-31T00:51:56;10.05;;;7.15;;
51780;SDS011;37844;57.126;24.288;2023-07-31T00:54:41;10.85;;;8.63;;
51780;SDS011;37844;57.126;24.288;2023-07-31T00:57:25;21.65;;;9.40;;
51780;SDS011;37844;57.126;24.288;2023-07-31T01:00:10;12.27;;;8.55;;
51780;SDS011;37844;57.126;24.288;2023-07-31T01:02:54;11.23;;;8.25;;
51780;SDS011;37844;57.126;24.288;2023-07-31T01:12:04;14.75;;;7.45;;
51780;SDS011;37844;57.126;24.288;2023-07-31T01:15:13;20.65;;;9.13;;
51780;SDS011;37844;57.126;24.288;2023-07-31T01:17:55;15.60;;;9.20;;
51780;SDS011;37844;57.126;24.288;2023-07-31T01:20:39;12.77;;;10.10;;
51780;SDS011;37844;57.126;24.288;2023-07-31T01:23:35;16.00;;;10.25;;
51780;SDS011;37844;57.126;24.288;2023-07-31T01:26:45;14.77;;;10.77;;
51780;SDS011;37844;57.126;24.288;2023-07-31T01:29:38;14.10;;;10.55;;
51780;SDS011;37844;57.126;24.288;2023-07-31T01:32:30;14.20;;;10.90;;
51780;SDS011;37844;57.126;24.288;2023-07-31T01:35:16;15.57;;;10.23;;
51780;SDS011;37844;57.126;24.288;2023-07-31T01:38:00;13.38;;;11.02;;
51780;SDS011;37844;57.126;24.288;2023-07-31T01:40:44;14.32;;;10.65;;
51780;SDS011;37844;57.126;24.288;2023-07-31T01:43:28;19.58;;;10.63;;
51780;SDS011;37844;57.126;24.288;2023-07-31T01:46:12;14.45;;;10.60;;
51780;SDS011;37844;57.126;24.288;2023-07-31T01:48:57;14.43;;;11.45;;
51780;SDS011;37844;57.126;24.288;2023-07-31T01:51:41;14.32;;;11.10;;
51780;SDS011;37844;57.126;24.288;2023-07-31T01:54:25;13.15;;;11.30;;
51780;SDS011;37844;57.126;24.288;2023-07-31T01:57:09;12.55;;;9.10;;
51780;SDS011;37844;57.126;24.288;2023-07-31T01:59:53;16.55;;;10.65;;
51780;SDS011;37844;57.126;24.288;2023-07-31T02:02:37;13.77;;;8.77;;
51780;SDS011;37844;57.126;24.288;2023-07-31T02:05:21;15.57;;;10.52;;
51780;SDS011;37844;57.126;24.288;2023-07-31T02:08:04;19.20;;;10.55;;
51780;SDS011;37844;57.126;24.288;2023-07-31T02:10:48;14.45;;;8.30;;
51780;SDS011;37844;57.126;24.288;2023-07-31T02:13:32;11.68;;;9.10;;
51780;SDS011;37844;57.126;24.288;2023-07-31T02:16:16;13.57;;;8.55;;
51780;SDS011;37844;57.126;24.288;2023-07-31T02:19:00;11.05;;;8.13;;
51780;SDS011;37844;57.126;24.288;2023-07-31T02:21:44;11.38;;;7.55;;
51780;SDS011;37844;57.126;24.288;2023-07-31T02:24:28;11.15;;;7.70;;
51780;SDS011;37844;57.126;24.288;2023-07-31T02:27:12;21.33;;;14.80;;
51780;SDS011;37844;57.126;24.288;2023-07-31T02:29:56;18.20;;;11.70;;
51780;SDS011;37844;57.126;24.288;2023-07-31T02:32:43;14.95;;;9.20;;
51780;SDS011;37844;57.126;24.288;2023-07-31T02:35:27;11.50;;;7.55;;
51780;SDS011;37844;57.126;24.288;2023-07-31T02:38:11;21.48;;;8.45;;
51780;SDS011;37844;57.126;24.288;2023-07-31T02:40:55;10.90;;;8.18;;
51780;SDS011;37844;57.126;24.288;2023-07-31T02:43:39;15.35;;;8.35;;
51780;SDS011;37844;57.126;24.288;2023-07-31T02:46:23;13.73;;;9.50;;
51780;SDS011;37844;57.126;24.288;2023-07-31T02:49:08;16.40;;;8.82;;
51780;SDS011;37844;57.126;24.288;2023-07-31T02:51:52;11.35;;;7.55;;
51780;SDS011;37844;57.126;24.288;2023-07-31T02:54:36;9.75;;;6.95;;
51780;SDS011;37844;57.126;24.288;2023-07-31T02:57:20;9.95;;;7.38;;
51780;SDS011;37844;57.126;24.288;2023-07-31T03:00:04;11.27;;;8.65;;
51780;SDS011;37844;57.126;24.288;2023-07-31T03:02:50;12.25;;;9.45;;
51780;SDS011;37844;57.126;24.288;2023-07-31T03:05:33;12.60;;;9.75;;
51780;SDS011;37844;57.126;24.288;2023-07-31T03:08:18;16.92;;;9.63;;
51780;SDS011;37844;57.126;24.288;2023-07-31T03:11:02;18.42;;;9.20;;
51780;SDS011;37844;57.126;24.288;2023-07-31T03:13:46;18.10;;;8.52;;
51780;SDS011;37844;57.126;24.288;2023-07-31T03:16:30;12.70;;;10.20;;
51780;SDS011;37844;57.126;24.288;2023-07-31T03:19:14;11.80;;;9.18;;
51780;SDS011;37844;57.126;24.288;2023-07-31T03:21:58;11.95;;;9.40;;
51780;SDS011;37844;57.126;24.288;2023-07-31T03:24:43;12.30;;;10.00;;
51780;SDS011;37844;57.126;24.288;2023-07-31T03:27:27;12.98;;;9.02;;
51780;SDS011;37844;57.126;24.288;2023-07-31T03:30:11;16.23;;;9.30;;
51780;SDS011;37844;57.126;24.288;2023-07-31T03:32:55;13.35;;;8.80;;
51780;SDS011;37844;57.126;24.288;2023-07-31T03:35:39;16.92;;;10.13;;
51780;SDS011;37844;57.126;24.288;2023-07-31T03:38:23;15.05;;;11.65;;
51780;SDS011;37844;57.126;24.288;2023-07-31T03:41:07;13.10;;;9.77;;
51780;SDS011;37844;57.126;24.288;2023-07-31T03:43:51;11.43;;;9.38;;
51780;SDS011;37844;57.126;24.288;2023-07-31T03:46:41;15.13;;;10.13;;
51780;SDS011;37844;57.126;24.288;2023-07-31T03:49:26;16.25;;;10.60;;
51780;SDS011;37844;57.126;24.288;2023-07-31T03:52:10;13.27;;;9.48;;
51780;SDS011;37844;57.126;24.288;2023-07-31T03:54:54;15.57;;;9.88;;
51780;SDS011;37844;57.126;24.288;2023-07-31T03:57:38;12.15;;;9.57;;
51780;SDS011;37844;57.126;24.288;2023-07-31T04:00:22;13.25;;;9.80;;
51780;SDS011;37844;57.126;24.288;2023-07-31T04:03:06;14.77;;;8.45;;
51780;SDS011;37844;57.126;24.288;2023-07-31T04:05:50;15.18;;;9.50;;
51780;SDS011;37844;57.126;24.288;2023-07-31T04:08:34;11.60;;;9.00;;
51780;SDS011;37844;57.126;24.288;2023-07-31T04:11:18;13.77;;;9.60;;
51780;SDS011;37844;57.126;24.288;2023-07-31T04:14:03;15.43;;;9.30;;
51780;SDS011;37844;57.126;24.288;2023-07-31T04:16:47;16.25;;;9.70;;
51780;SDS011;37844;57.126;24.288;2023-07-31T04:19:31;16.15;;;10.15;;
51780;SDS011;37844;57.126;24.288;2023-07-31T04:22:15;14.60;;;10.82;;
51780;SDS011;37844;57.126;24.288;2023-07-31T04:24:59;13.40;;;9.63;;
51780;SDS011;37844;57.126;24.288;2023-07-31T04:27:43;13.48;;;10.13;;
51780;SDS011;37844;57.126;24.288;2023-07-31T04:30:34;13.65;;;9.15;;
51780;SDS011;37844;57.126;24.288;2023-07-31T04:33:17;12.02;;;8.63;;
51780;SDS011;37844;57.126;24.288;2023-07-31T04:36:02;12.77;;;9.88;;
51780;SDS011;37844;57.126;24.288;2023-07-31T04:38:46;11.27;;;8.43;;
51780;SDS011;37844;57.126;24.288;2023-07-31T04:41:31;13.55;;;10.05;;
51780;SDS011;37844;57.126;24.288;2023-07-31T04:44:14;15.85;;;9.07;;
51780;SDS011;37844;57.126;24.288;2023-07-31T04:46:58;18.63;;;8.93;;
51780;SDS011;37844;57.126;24.288;2023-07-31T04:49:42;12.90;;;8.60;;
51780;SDS011;37844;57.126;24.288;2023-07-31T04:52:26;15.88;;;9.32;;
51780;SDS011;37844;57.126;24.288;2023-07-31T04:55:10;18.98;;;10.90;;
51780;SDS011;37844;57.126;24.288;2023-07-31T04:57:54;13.02;;;9.90;;
51780;SDS011;37844;57.126;24.288;2023-07-31T05:00:38;15.32;;;9.77;;
51780;SDS011;37844;57.126;24.288;2023-07-31T05:03:22;19.48;;;11.65;;
51780;SDS011;37844;57.126;24.288;2023-07-31T05:06:06;15.20;;;8.98;;
51780;SDS011;37844;57.126;24.288;2023-07-31T05:08:50;14.05;;;9.68;;
51780;SDS011;37844;57.126;24.288;2023-07-31T05:11:34;13.68;;;9.60;;
51780;SDS011;37844;57.126;24.288;2023-07-31T05:14:18;22.33;;;9.63;;
51780;SDS011;37844;57.126;24.288;2023-07-31T05:17:03;19.50;;;10.23;;
51780;SDS011;37844;57.126;24.288;2023-07-31T05:19:48;17.65;;;10.57;;
51780;SDS011;37844;57.126;24.288;2023-07-31T05:22:32;13.68;;;9.50;;
51780;SDS011;37844;57.126;24.288;2023-07-31T05:25:16;12.10;;;7.95;;
51780;SDS011;37844;57.126;24.288;2023-07-31T05:28:00;15.55;;;9.48;;
51780;SDS011;37844;57.126;24.288;2023-07-31T05:30:44;20.58;;;8.93;;
51780;SDS011;37844;57.126;24.288;2023-07-31T05:33:28;14.38;;;7.53;;
51780;SDS011;37844;57.126;24.288;2023-07-31T05:36:12;12.70;;;8.45;;
51780;SDS011;37844;57.126;24.288;2023-07-31T05:38:56;22.67;;;8.77;;
51780;SDS011;37844;57.126;24.288;2023-07-31T05:41:40;9.80;;;6.63;;
51780;SDS011;37844;57.126;24.288;2023-07-31T05:44:24;10.45;;;6.63;;
51780;SDS011;37844;57.126;24.288;2023-07-31T05:47:08;12.75;;;6.55;;
51780;SDS011;37844;57.126;24.288;2023-07-31T05:49:53;12.20;;;6.32;;
51780;SDS011;37844;57.126;24.288;2023-07-31T05:52:37;9.65;;;5.60;;
51780;SDS011;37844;57.126;24.288;2023-07-31T05:55:21;9.38;;;5.57;;
51780;SDS011;37844;57.126;24.288;2023-07-31T05:58:05;8.60;;;4.43;;
51780;SDS011;37844;57.126;24.288;2023-07-31T06:00:49;11.35;;;5.80;;
51780;SDS011;37844;57.126;24.288;2023-07-31T06:03:33;13.77;;;5.35;;
51780;SDS011;37844;57.126;24.288;2023-07-31T06:06:17;7.10;;;4.30;;
51780;SDS011;37844;57.126;24.288;2023-07-31T06:09:01;10.85;;;4.25;;
51780;SDS011;37844;57.126;24.288;2023-07-31T06:11:47;9.68;;;4.53;;
51780;SDS011;37844;57.126;24.288;2023-07-31T06:14:31;8.13;;;4.13;;
51780;SDS011;37844;57.126;24.288;2023-07-31T06:17:15;6.97;;;3.97;;
51780;SDS011;37844;57.126;24.288;2023-07-31T06:20:00;9.13;;;4.10;;
51780;SDS011;37844;57.126;24.288;2023-07-31T06:22:44;11.85;;;3.90;;
51780;SDS011;37844;57.126;24.288;2023-07-31T06:25:28;10.88;;;4.75;;
51780;SDS011;37844;57.126;24.288;2023-07-31T06:28:12;12.57;;;6.90;;
51780;SDS011;37844;57.126;24.288;2023-07-31T06:30:56;9.65;;;4.55;;
51780;SDS011;37844;57.126;24.288;2023-07-31T06:33:41;9.98;;;4.13;;
51780;SDS011;37844;57.126;24.288;2023-07-31T06:36:25;9.05;;;3.95;;
51780;SDS011;37844;57.126;24.288;2023-07-31T06:39:09;7.43;;;4.53;;
51780;SDS011;37844;57.126;24.288;2023-07-31T06:41:53;10.10;;;4.40;;
51780;SDS011;37844;57.126;24.288;2023-07-31T06:44:37;10.20;;;4.28;;
51780;SDS011;37844;57.126;24.288;2023-07-31T06:47:21;13.32;;;4.32;;
51780;SDS011;37844;57.126;24.288;2023-07-31T06:50:05;6.70;;;4.00;;
51780;SDS011;37844;57.126;24.288;2023-07-31T06:52:49;10.52;;;4.90;;
51780;SDS011;37844;57.126;24.288;2023-07-31T06:55:33;8.93;;;5.30;;
51780;SDS011;37844;57.126;24.288;2023-07-31T06:58:17;10.93;;;4.45;;
51780;SDS011;37844;57.126;24.288;2023-07-31T07:01:02;16.55;;;8.38;;
51780;SDS011;37844;57.126;24.288;2023-07-31T07:03:46;12.60;;;5.80;;
51780;SDS011;37844;57.126;24.288;2023-07-31T07:06:30;17.58;;;6.65;;
51780;SDS011;37844;57.126;24.288;2023-07-31T07:09:15;10.73;;;5.55;;
51780;SDS011;37844;57.126;24.288;2023-07-31T07:11:58;15.25;;;7.32;;
51780;SDS011;37844;57.126;24.288;2023-07-31T07:14:42;11.90;;;6.72;;
51780;SDS011;37844;57.126;24.288;2023-07-31T07:17:27;12.52;;;7.55;;
51780;SDS011;37844;57.126;24.288;2023-07-31T07:20:15;17.55;;;6.93;;
51780;SDS011;37844;57.126;24.288;2023-07-31T07:22:59;14.80;;;5.72;;
51780;SDS011;37844;57.126;24.288;2023-07-31T07:25:44;11.20;;;6.32;;
51780;SDS011;37844;57.126;24.288;2023-07-31T07:28:29;12.38;;;5.78;;
51780;SDS011;37844;57.126;24.288;2023-07-31T07:31:13;10.05;;;6.32;;
51780;SDS011;37844;57.126;24.288;2023-07-31T07:33:57;10.63;;;6.68;;
51780;SDS011;37844;57.126;24.288;2023-07-31T07:36:42;10.43;;;5.57;;
51780;SDS011;37844;57.126;24.288;2023-07-31T07:39:26;8.30;;;4.38;;
51780;SDS011;37844;57.126;24.288;2023-07-31T07:42:10;12.32;;;4.80;;
51780;SDS011;37844;57.126;24.288;2023-07-31T07:44:54;7.53;;;4.22;;
51780;SDS011;37844;57.126;24.288;2023-07-31T07:47:40;8.50;;;4.38;;
51780;SDS011;37844;57.126;24.288;2023-07-31T07:50:24;14.60;;;6.00;;
51780;SDS011;37844;57.126;24.288;2023-07-31T07:53:09;18.50;;;4.72;;
51780;SDS011;37844;57.126;24.288;2023-07-31T07:55:53;13.27;;;4.60;;
51780;SDS011;37844;57.126;24.288;2023-07-31T07:58:37;11.75;;;3.80;;
51780;SDS011;37844;57.126;24.288;2023-07-31T08:01:21;9.60;;;4.07;;
51780;SDS011;37844;57.126;24.288;2023-07-31T08:04:05;10.32;;;3.60;;
51780;SDS011;37844;57.126;24.288;2023-07-31T08:06:49;12.38;;;3.83;;
51780;SDS011;37844;57.126;24.288;2023-07-31T08:09:33;6.30;;;2.83;;
51780;SDS011;37844;57.126;24.288;2023-07-31T08:12:17;4.93;;;2.63;;
51780;SDS011;37844;57.126;24.288;2023-07-31T08:15:01;6.85;;;2.78;;
51780;SDS011;37844;57.126;24.288;2023-07-31T08:17:45;7.13;;;3.15;;
51780;SDS011;37844;57.126;24.288;2023-07-31T08:20:28;9.68;;;2.20;;
51780;SDS011;37844;57.126;24.288;2023-07-31T08:23:12;9.88;;;2.95;;
51780;SDS011;37844;57.126;24.288;2023-07-31T08:25:57;5.85;;;2.63;;
51780;SDS011;37844;57.126;24.288;2023-07-31T08:28:41;7.45;;;2.65;;
51780;SDS011;37844;57.126;24.288;2023-07-31T08:31:25;5.90;;;2.83;;
51780;SDS011;37844;57.126;24.288;2023-07-31T08:34:10;6.30;;;3.00;;
51780;SDS011;37844;57.126;24.288;2023-07-31T08:36:55;6.47;;;3.30;;
51780;SDS011;37844;57.126;24.288;2023-07-31T08:39:38;6.50;;;3.35;;
51780;SDS011;37844;57.126;24.288;2023-07-31T08:42:23;8.38;;;3.20;;
51780;SDS011;37844;57.126;24.288;2023-07-31T08:45:09;7.00;;;3.80;;
51780;SDS011;37844;57.126;24.288;2023-07-31T08:47:55;9.57;;;4.60;;
51780;SDS011;37844;57.126;24.288;2023-07-31T08:50:41;9.77;;;4.15;;
51780;SDS011;37844;57.126;24.288;2023-07-31T08:53:26;7.03;;;3.67;;
51780;SDS011;37844;57.126;24.288;2023-07-31T08:56:10;12.07;;;3.80;;
51780;SDS011;37844;57.126;24.288;2023-07-31T08:58:55;9.07;;;3.35;;
51780;SDS011;37844;57.126;24.288;2023-07-31T09:01:43;8.43;;;2.67;;
51780;SDS011;37844;57.126;24.288;2023-07-31T09:04:32;10.77;;;3.95;;
51780;SDS011;37844;57.126;24.288;2023-07-31T09:07:17;9.02;;;2.60;;
51780;SDS011;37844;57.126;24.288;2023-07-31T09:10:00;8.63;;;3.28;;
51780;SDS011;37844;57.126;24.288;2023-07-31T09:12:45;5.32;;;2.63;;
51780;SDS011;37844;57.126;24.288;2023-07-31T09:15:31;6.28;;;2.50;;
51780;SDS011;37844;57.126;24.288;2023-07-31T09:18:15;9.38;;;2.58;;
51780;SDS011;37844;57.126;24.288;2023-07-31T09:23:47;12.70;;;2.17;;
51780;SDS011;37844;57.126;24.288;2023-07-31T09:26:32;4.38;;;2.38;;
51780;SDS011;37844;57.126;24.288;2023-07-31T09:29:18;9.15;;;1.90;;
51780;SDS011;37844;57.126;24.288;2023-07-31T09:32:03;6.93;;;2.42;;
51780;SDS011;37844;57.126;24.288;2023-07-31T09:34:47;5.53;;;2.30;;
51780;SDS011;37844;57.126;24.288;2023-07-31T09:37:31;8.45;;;3.08;;
51780;SDS011;37844;57.126;24.288;2023-07-31T09:40:29;11.23;;;2.20;;
51780;SDS011;37844;57.126;24.288;2023-07-31T09:43:21;4.53;;;2.03;;
51780;SDS011;37844;57.126;24.288;2023-07-31T09:46:05;8.48;;;2.58;;
51780;SDS011;37844;57.126;24.288;2023-07-31T09:49:10;4.88;;;2.30;;
51780;SDS011;37844;57.126;24.288;2023-07-31T09:51:55;10.75;;;3.28;;
51780;SDS011;37844;57.126;24.288;2023-07-31T09:54:39;7.57;;;2.78;;
51780;SDS011;37844;57.126;24.288;2023-07-31T09:57:26;10.60;;;3.00;;
51780;SDS011;37844;57.126;24.288;2023-07-31T10:00:13;7.60;;;3.05;;
51780;SDS011;37844;57.126;24.288;2023-07-31T10:03:06;6.18;;;2.88;;
51780;SDS011;37844;57.126;24.288;2023-07-31T10:05:52;8.27;;;3.30;;
51780;SDS011;37844;57.126;24.288;2023-07-31T10:08:38;4.95;;;2.40;;
51780;SDS011;37844;57.126;24.288;2023-07-31T10:11:23;5.97;;;2.67;;
51780;SDS011;37844;57.126;24.288;2023-07-31T10:14:11;20.00;;;2.75;;
51780;SDS011;37844;57.126;24.288;2023-07-31T10:16:57;22.48;;;4.65;;
51780;SDS011;37844;57.126;24.288;2023-07-31T10:19:42;30.00;;;6.05;;
51780;SDS011;37844;57.126;24.288;2023-07-31T10:22:27;7.38;;;3.58;;
51780;SDS011;37844;57.126;24.288;2023-07-31T10:25:12;12.98;;;3.65;;
51780;SDS011;37844;57.126;24.288;2023-07-31T10:27:56;11.18;;;3.13;;
51780;SDS011;37844;57.126;24.288;2023-07-31T10:30:41;13.70;;;3.65;;
51780;SDS011;37844;57.126;24.288;2023-07-31T10:33:25;22.42;;;4.22;;
51780;SDS011;37844;57.126;24.288;2023-07-31T10:36:14;9.63;;;4.97;;
51780;SDS011;37844;57.126;24.288;2023-07-31T10:39:03;9.90;;;4.50;;
51780;SDS011;37844;57.126;24.288;2023-07-31T10:41:48;8.32;;;3.95;;
51780;SDS011;37844;57.126;24.288;2023-07-31T10:44:32;6.50;;;3.47;;
51780;SDS011;37844;57.126;24.288;2023-07-31T10:47:17;8.52;;;3.78;;
51780;SDS011;37844;57.126;24.288;2023-07-31T10:50:11;16.52;;;5.38;;
51780;SDS011;37844;57.126;24.288;2023-07-31T10:53:07;11.68;;;4.55;;
51780;SDS011;37844;57.126;24.288;2023-07-31T10:56:09;10.40;;;4.82;;
51780;SDS011;37844;57.126;24.288;2023-07-31T10:59:01;10.07;;;4.40;;
51780;SDS011;37844;57.126;24.288;2023-07-31T11:01:55;8.57;;;4.03;;
51780;SDS011;37844;57.126;24.288;2023-07-31T11:04:46;6.95;;;3.75;;
51780;SDS011;37844;57.126;24.288;2023-07-31T11:07:49;10.55;;;4.00;;
51780;SDS011;37844;57.126;24.288;2023-07-31T11:10:34;15.70;;;4.68;;
51780;SDS011;37844;57.126;24.288;2023-07-31T11:13:18;10.48;;;3.88;;
51780;SDS011;37844;57.126;24.288;2023-07-31T11:16:02;10.82;;;3.58;;
51780;SDS011;37844;57.126;24.288;2023-07-31T11:18:46;12.93;;;4.32;;
51780;SDS011;37844;57.126;24.288;2023-07-31T11:21:32;6.35;;;3.35;;
51780;SDS011;37844;57.126;24.288;2023-07-31T11:24:16;6.60;;;3.50;;
51780;SDS011;37844;57.126;24.288;2023-07-31T11:27:00;12.85;;;3.50;;
51780;SDS011;37844;57.126;24.288;2023-07-31T11:29:51;6.78;;;3.05;;
51780;SDS011;37844;57.126;24.288;2023-07-31T11:32:36;10.95;;;5.68;;
51780;SDS011;37844;57.126;24.288;2023-07-31T11:35:20;8.07;;;2.80;;
51780;SDS011;37844;57.126;24.288;2023-07-31T11:38:05;7.03;;;2.92;;
51780;SDS011;37844;57.126;24.288;2023-07-31T11:40:49;6.70;;;3.08;;
51780;SDS011;37844;57.126;24.288;2023-07-31T11:43:33;5.10;;;2.72;;
51780;SDS011;37844;57.126;24.288;2023-07-31T11:46:20;8.20;;;3.05;;
51780;SDS011;37844;57.126;24.288;2023-07-31T11:49:04;11.13;;;3.92;;
51780;SDS011;37844;57.126;24.288;2023-07-31T11:51:47;5.18;;;2.47;;
51780;SDS011;37844;57.126;24.288;2023-07-31T11:54:32;14.80;;;5.53;;
51780;SDS011;37844;57.126;24.288;2023-07-31T11:57:16;8.02;;;2.38;;
51780;SDS011;37844;57.126;24.288;2023-07-31T12:00:02;5.68;;;1.95;;
51780;SDS011;37844;57.126;24.288;2023-07-31T12:02:48;7.38;;;2.10;;
51780;SDS011;37844;57.126;24.288;2023-07-31T12:05:39;5.50;;;2.60;;
51780;SDS011;37844;57.126;24.288;2023-07-31T12:08:23;5.63;;;2.00;;
51780;SDS011;37844;57.126;24.288;2023-07-31T12:11:08;9.07;;;2.13;;
51780;SDS011;37844;57.126;24.288;2023-07-31T12:13:53;4.57;;;1.83;;
51780;SDS011;37844;57.126;24.288;2023-07-31T12:16:37;4.97;;;2.05;;
51780;SDS011;37844;57.126;24.288;2023-07-31T12:19:22;4.32;;;2.17;;
51780;SDS011;37844;57.126;24.288;2023-07-31T12:22:13;3.88;;;2.30;;
51780;SDS011;37844;57.126;24.288;2023-07-31T12:24:59;8.07;;;2.95;;
51780;SDS011;37844;57.126;24.288;2023-07-31T12:27:46;6.70;;;2.63;;
51780;SDS011;37844;57.126;24.288;2023-07-31T12:30:33;9.15;;;2.33;;
51780;SDS011;37844;57.126;24.288;2023-07-31T12:33:18;6.45;;;3.80;;
51780;SDS011;37844;57.126;24.288;2023-07-31T12:36:04;5.82;;;2.95;;
51780;SDS011;37844;57.126;24.288;2023-07-31T12:38:52;4.18;;;2.08;;
51780;SDS011;37844;57.126;24.288;2023-07-31T12:41:36;8.18;;;2.08;;
51780;SDS011;37844;57.126;24.288;2023-07-31T12:44:20;4.85;;;1.98;;
51780;SDS011;37844;57.126;24.288;2023-07-31T12:47:05;10.63;;;2.90;;
51780;SDS011;37844;57.126;24.288;2023-07-31T12:49:49;8.30;;;2.45;;
51780;SDS011;37844;57.126;24.288;2023-07-31T12:52:33;6.05;;;2.75;;
51780;SDS011;37844;57.126;24.288;2023-07-31T12:55:17;10.27;;;4.70;;
51780;SDS011;37844;57.126;24.288;2023-07-31T12:58:02;8.90;;;2.67;;
51780;SDS011;37844;57.126;24.288;2023-07-31T13:00:47;3.22;;;2.10;;
51780;SDS011;37844;57.126;24.288;2023-07-31T13:03:31;6.40;;;2.63;;
51780;SDS011;37844;57.126;24.288;2023-07-31T13:06:15;5.65;;;2.88;;
51780;SDS011;37844;57.126;24.288;2023-07-31T13:08:59;5.40;;;2.78;;
51780;SDS011;37844;57.126;24.288;2023-07-31T13:11:43;10.50;;;2.90;;
51780;SDS011;37844;57.126;24.288;2023-07-31T13:14:27;6.65;;;1.90;;
51780;SDS011;37844;57.126;24.288;2023-07-31T13:17:12;5.47;;;2.58;;
51780;SDS011;37844;57.126;24.288;2023-07-31T13:19:56;6.97;;;2.65;;
51780;SDS011;37844;57.126;24.288;2023-07-31T13:22:40;3.25;;;1.90;;
51780;SDS011;37844;57.126;24.288;2023-07-31T13:25:24;8.52;;;4.65;;
51780;SDS011;37844;57.126;24.288;2023-07-31T13:28:08;3.75;;;1.90;;
51780;SDS011;37844;57.126;24.288;2023-07-31T13:30:52;4.45;;;1.75;;
51780;SDS011;37844;57.126;24.288;2023-07-31T13:33:36;4.03;;;2.17;;
51780;SDS011;37844;57.126;24.288;2023-07-31T13:36:21;4.30;;;1.90;;
51780;SDS011;37844;57.126;24.288;2023-07-31T13:39:05;4.07;;;1.70;;
51780;SDS011;37844;57.126;24.288;2023-07-31T13:41:49;4.63;;;2.67;;
51780;SDS011;37844;57.126;24.288;2023-07-31T13:44:36;3.38;;;1.63;;
51780;SDS011;37844;57.126;24.288;2023-07-31T13:47:20;7.85;;;2.40;;
51780;SDS011;37844;57.126;24.288;2023-07-31T13:50:04;6.43;;;1.88;;
51780;SDS011;37844;57.126;24.288;2023-07-31T13:52:48;4.65;;;1.67;;
51780;SDS011;37844;57.126;24.288;2023-07-31T13:55:32;4.13;;;1.88;;
51780;SDS011;37844;57.126;24.288;2023-07-31T13:58:17;3.47;;;1.40;;
51780;SDS011;37844;57.126;24.288;2023-07-31T14:01:01;3.17;;;1.80;;
51780;SDS011;37844;57.126;24.288;2023-07-31T14:03:45;2.72;;;1.55;;
51780;SDS011;37844;57.126;24.288;2023-07-31T14:06:29;3.45;;;1.50;;
51780;SDS011;37844;57.126;24.288;2023-07-31T14:09:13;3.25;;;1.65;;
51780;SDS011;37844;57.126;24.288;2023-07-31T14:11:58;5.10;;;1.80;;
51780;SDS011;37844;57.126;24.288;2023-07-31T14:14:42;3.00;;;1.60;;
51780;SDS011;37844;57.126;24.288;2023-07-31T14:17:26;3.45;;;1.67;;
51780;SDS011;37844;57.126;24.288;2023-07-31T14:20:10;9.40;;;4.15;;
51780;SDS011;37844;57.126;24.288;2023-07-31T14:22:55;4.78;;;2.00;;
51780;SDS011;37844;57.126;24.288;2023-07-31T14:25:47;3.20;;;2.00;;
51780;SDS011;37844;57.126;24.288;2023-07-31T14:28:44;6.18;;;2.10;;
51780;SDS011;37844;57.126;24.288;2023-07-31T14:31:28;6.68;;;1.80;;
51780;SDS011;37844;57.126;24.288;2023-07-31T14:34:12;2.70;;;1.70;;
51780;SDS011;37844;57.126;24.288;2023-07-31T14:36:56;5.28;;;1.95;;
51780;SDS011;37844;57.126;24.288;2023-07-31T14:39:41;13.80;;;1.90;;
51780;SDS011;37844;57.126;24.288;2023-07-31T14:42:25;10.63;;;2.03;;
51780;SDS011;37844;57.126;24.288;2023-07-31T14:45:09;3.42;;;2.00;;
51780;SDS011;37844;57.126;24.288;2023-07-31T14:47:53;3.45;;;1.73;;
51780;SDS011;37844;57.126;24.288;2023-07-31T14:50:37;3.58;;;1.45;;
51780;SDS011;37844;57.126;24.288;2023-07-31T14:53:21;2.13;;;1.65;;
51780;SDS011;37844;57.126;24.288;2023-07-31T14:56:05;5.80;;;2.90;;
51780;SDS011;37844;57.126;24.288;2023-07-31T14:58:49;9.38;;;1.80;;
51780;SDS011;37844;57.126;24.288;2023-07-31T15:01:33;1.15;;;1.00;;
51780;SDS011;37844;57.126;24.288;2023-07-31T15:04:17;1.52;;;1.00;;
51780;SDS011;37844;57.126;24.288;2023-07-31T15:07:02;5.15;;;1.58;;
51780;SDS011;37844;57.126;24.288;2023-07-31T15:09:53;4.93;;;2.03;;
51780;SDS011;37844;57.126;24.288;2023-07-31T15:12:37;5.18;;;1.40;;
51780;SDS011;37844;57.126;24.288;2023-07-31T15:15:23;1.75;;;1.15;;
51780;SDS011;37844;57.126;24.288;2023-07-31T15:18:07;1.65;;;1.10;;
51780;SDS011;37844;57.126;24.288;2023-07-31T15:20:51;2.90;;;1.40;;
51780;SDS011;37844;57.126;24.288;2023-07-31T15:23:35;1.10;;;1.00;;
51780;SDS011;37844;57.126;24.288;2023-07-31T15:26:19;6.50;;;1.70;;
51780;SDS011;37844;57.126;24.288;2023-07-31T15:29:03;4.78;;;1.80;;
51780;SDS011;37844;57.126;24.288;2023-07-31T15:31:52;5.03;;;1.40;;
51780;SDS011;37844;57.126;24.288;2023-07-31T15:34:36;5.35;;;2.30;;
51780;SDS011;37844;57.126;24.288;2023-07-31T15:37:20;3.05;;;1.35;;
51780;SDS011;37844;57.126;24.288;2023-07-31T15:40:04;3.22;;;1.52;;
51780;SDS011;37844;57.126;24.288;2023-07-31T15:42:49;3.38;;;1.30;;
51780;SDS011;37844;57.126;24.288;2023-07-31T15:45:33;5.97;;;1.10;;
51780;SDS011;37844;57.126;24.288;2023-07-31T15:48:17;7.45;;;2.42;;
51780;SDS011;37844;57.126;24.288;2023-07-31T15:51:01;5.82;;;2.40;;
51780;SDS011;37844;57.126;24.288;2023-07-31T15:53:47;4.53;;;1.75;;
51780;SDS011;37844;57.126;24.288;2023-07-31T15:56:31;6.32;;;1.70;;
51780;SDS011;37844;57.126;24.288;2023-07-31T15:59:15;5.65;;;1.88;;
51780;SDS011;37844;57.126;24.288;2023-07-31T16:01:59;3.28;;;1.38;;
51780;SDS011;37844;57.126;24.288;2023-07-31T16:04:43;3.67;;;1.92;;
51780;SDS011;37844;57.126;24.288;2023-07-31T16:07:27;8.45;;;1.85;;
51780;SDS011;37844;57.126;24.288;2023-07-31T16:10:11;2.97;;;1.40;;
51780;SDS011;37844;57.126;24.288;2023-07-31T16:12:55;5.43;;;1.90;;
51780;SDS011;37844;57.126;24.288;2023-07-31T16:15:39;3.20;;;1.80;;
51780;SDS011;37844;57.126;24.288;2023-07-31T16:18:24;6.80;;;1.90;;
51780;SDS011;37844;57.126;24.288;2023-07-31T16:21:07;5.50;;;1.73;;